sensor_id;sensor_type;location;lat;lon;timestamp;P1;durP1;ratioP1;P2;durP2;ratioP2
59986;SDS011;46181;51.498;5.392;2023-07-13T00:03:12;6.556;;;1.628;;
59986;SDS011;46181;51.498;5.392;2023-07-13T00:07:42;5.303999;;;1.568;;
59986;SDS011;46181;51.498;5.392;2023-07-13T00:16:42;5.988;;;1.216;;
59986;SDS011;46181;51.498;5.392;2023-07-13T00:21:12;6.124;;;1.3;;
59986;SDS011;46181;51.498;5.392;2023-07-13T00:25:42;6.756;;;1.512;;
59986;SDS011;46181;51.498;5.392;2023-07-13T00:30:12;6.456;;;1.416;;
59986;SDS011;46181;51.498;5.392;2023-07-13T00:34:42;7.284001;;;1.684;;
59986;SDS011;46181;51.498;5.392;2023-07-13T00:39:12;9.752001;;;2.988;;
59986;SDS011;46181;51.498;5.392;2023-07-13T00:43:42;8.023999;;;3.344;;
59986;SDS011;46181;51.498;5.392;2023-07-13T00:48:12;8.796;;;3.668;;
59986;SDS011;46181;51.498;5.392;2023-07-13T00:52:43;6.204;;;2.248;;
59986;SDS011;46181;51.498;5.392;2023-07-13T00:57:12;4.792001;;;1.616;;
59986;SDS011;46181;51.498;5.392;2023-07-13T01:01:42;4.268001;;;1.208;;
59986;SDS011;46181;51.498;5.392;2023-07-13T01:06:12;4.800001;;;1.64;;
59986;SDS011;46181;51.498;5.392;2023-07-13T01:10:42;7.816;;;1.432;;
59986;SDS011;46181;51.498;5.392;2023-07-13T01:19:42;8.616;;;1.648;;
59986;SDS011;46181;51.498;5.392;2023-07-13T01:24:12;6.791999;;;1.46;;
59986;SDS011;46181;51.498;5.392;2023-07-13T01:28:42;8.199999;;;1.46;;
59986;SDS011;46181;51.498;5.392;2023-07-13T01:33:12;5.163999;;;1.4;;
59986;SDS011;46181;51.498;5.392;2023-07-13T01:37:42;8.172;;;1.508;;
59986;SDS011;46181;51.498;5.392;2023-07-13T01:42:12;4.912001;;;1.476;;
59986;SDS011;46181;51.498;5.392;2023-07-13T01:46:42;8.692;;;1.632;;
59986;SDS011;46181;51.498;5.392;2023-07-13T01:51:12;4.292001;;;1.456;;
59986;SDS011;46181;51.498;5.392;2023-07-13T01:55:42;7.296;;;1.464;;
59986;SDS011;46181;51.498;5.392;2023-07-13T02:00:13;6.232001;;;1.572;;
59986;SDS011;46181;51.498;5.392;2023-07-13T02:04:42;4.792;;;1.468;;
59986;SDS011;46181;51.498;5.392;2023-07-13T02:09:12;3.884;;;1.344;;
59986;SDS011;46181;51.498;5.392;2023-07-13T02:13:42;5.432;;;1.62;;
59986;SDS011;46181;51.498;5.392;2023-07-13T02:18:12;7.907999;;;1.804;;
59986;SDS011;46181;51.498;5.392;2023-07-13T02:22:42;5.928;;;1.456;;
59986;SDS011;46181;51.498;5.392;2023-07-13T02:27:12;6.1;;;1.852;;
59986;SDS011;46181;51.498;5.392;2023-07-13T02:31:42;6.208001;;;1.696;;
59986;SDS011;46181;51.498;5.392;2023-07-13T02:36:12;5.628;;;1.624;;
59986;SDS011;46181;51.498;5.392;2023-07-13T02:40:42;6.832;;;1.912;;
59986;SDS011;46181;51.498;5.392;2023-07-13T02:45:12;5.408;;;1.604;;
59986;SDS011;46181;51.498;5.392;2023-07-13T02:49:42;5.936;;;1.5;;
59986;SDS011;46181;51.498;5.392;2023-07-13T02:54:12;5.516;;;1.632;;
59986;SDS011;46181;51.498;5.392;2023-07-13T02:58:42;5.416;;;1.576;;
59986;SDS011;46181;51.498;5.392;2023-07-13T03:03:12;5.827999;;;1.464;;
59986;SDS011;46181;51.498;5.392;2023-07-13T03:07:42;6.66;;;2.016;;
59986;SDS011;46181;51.498;5.392;2023-07-13T03:12:12;7.388001;;;1.868;;
59986;SDS011;46181;51.498;5.392;2023-07-13T03:16:42;7.184;;;1.788;;
59986;SDS011;46181;51.498;5.392;2023-07-13T03:21:12;7.272001;;;1.72;;
59986;SDS011;46181;51.498;5.392;2023-07-13T03:25:42;6.2;;;1.884;;
59986;SDS011;46181;51.498;5.392;2023-07-13T03:30:13;8.084;;;1.932;;
59986;SDS011;46181;51.498;5.392;2023-07-13T03:34:42;9.868;;;1.984;;
59986;SDS011;46181;51.498;5.392;2023-07-13T03:39:12;4.768;;;1.748;;
59986;SDS011;46181;51.498;5.392;2023-07-13T03:43:42;4.956001;;;1.772;;
59986;SDS011;46181;51.498;5.392;2023-07-13T03:48:12;8.308002;;;2.132;;
59986;SDS011;46181;51.498;5.392;2023-07-13T03:52:42;8.959999;;;2.26;;
59986;SDS011;46181;51.498;5.392;2023-07-13T03:57:12;8.548;;;2.044;;
59986;SDS011;46181;51.498;5.392;2023-07-13T04:01:42;7.676002;;;2.468;;
59986;SDS011;46181;51.498;5.392;2023-07-13T04:06:12;8.619999;;;2.164001;;
59986;SDS011;46181;51.498;5.392;2023-07-13T04:10:42;7.283999;;;2.372;;
59986;SDS011;46181;51.498;5.392;2023-07-13T04:15:12;10.288;;;2.68;;
59986;SDS011;46181;51.498;5.392;2023-07-13T04:19:42;7.116;;;2.316;;
59986;SDS011;46181;51.498;5.392;2023-07-13T04:24:12;8.208;;;2.592;;
59986;SDS011;46181;51.498;5.392;2023-07-13T04:28:42;8.64;;;3.072001;;
59986;SDS011;46181;51.498;5.392;2023-07-13T04:33:12;9.407999;;;2.951999;;
59986;SDS011;46181;51.498;5.392;2023-07-13T04:37:42;9.808;;;3.463999;;
59986;SDS011;46181;51.498;5.392;2023-07-13T04:42:12;13.796;;;4.324;;
59986;SDS011;46181;51.498;5.392;2023-07-13T04:46:42;12.868;;;4.42;;
59986;SDS011;46181;51.498;5.392;2023-07-13T04:51:12;17.192;;;4.828001;;
59986;SDS011;46181;51.498;5.392;2023-07-13T04:55:42;18.808;;;5.571999;;
59986;SDS011;46181;51.498;5.392;2023-07-13T05:00:13;17.06;;;6;;
59986;SDS011;46181;51.498;5.392;2023-07-13T05:04:42;20.592;;;7.496;;
59986;SDS011;46181;51.498;5.392;2023-07-13T05:09:12;21.392;;;7.464;;
59986;SDS011;46181;51.498;5.392;2023-07-13T05:13:42;20.44;;;7.144;;
59986;SDS011;46181;51.498;5.392;2023-07-13T05:18:12;18.624;;;7.743999;;
59986;SDS011;46181;51.498;5.392;2023-07-13T05:22:42;22.464;;;7.9;;
59986;SDS011;46181;51.498;5.392;2023-07-13T05:27:12;17.956;;;7.203999;;
59986;SDS011;46181;51.498;5.392;2023-07-13T05:31:42;17.236;;;7.735999;;
59986;SDS011;46181;51.498;5.392;2023-07-13T05:36:12;17.408;;;6.780001;;
59986;SDS011;46181;51.498;5.392;2023-07-13T05:40:42;17.836;;;7.103999;;
59986;SDS011;46181;51.498;5.392;2023-07-13T05:45:12;19.244;;;7.776001;;
59986;SDS011;46181;51.498;5.392;2023-07-13T05:49:42;16.224;;;7.376001;;
59986;SDS011;46181;51.498;5.392;2023-07-13T05:54:12;19.288;;;6.747999;;
59986;SDS011;46181;51.498;5.392;2023-07-13T05:58:42;18.304;;;6.944;;
59986;SDS011;46181;51.498;5.392;2023-07-13T06:03:12;18.82;;;8.735998;;
59986;SDS011;46181;51.498;5.392;2023-07-13T06:07:42;23.528;;;11.328;;
59986;SDS011;46181;51.498;5.392;2023-07-13T06:12:12;15.996;;;6.62;;
59986;SDS011;46181;51.498;5.392;2023-07-13T06:16:42;12.788;;;6.595999;;
59986;SDS011;46181;51.498;5.392;2023-07-13T06:21:13;15.36;;;6.812;;
59986;SDS011;46181;51.498;5.392;2023-07-13T06:25:42;17.528;;;6.332001;;
59986;SDS011;46181;51.498;5.392;2023-07-13T06:30:13;17.552;;;6.256001;;
59986;SDS011;46181;51.498;5.392;2023-07-13T06:34:42;16.036;;;6.296001;;
59986;SDS011;46181;51.498;5.392;2023-07-13T06:39:12;19.72;;;7.044;;
59986;SDS011;46181;51.498;5.392;2023-07-13T06:43:42;14.908;;;7.083999;;
59986;SDS011;46181;51.498;5.392;2023-07-13T06:48:12;13.684;;;6.920001;;
59986;SDS011;46181;51.498;5.392;2023-07-13T06:52:42;13.448;;;6.368002;;
59986;SDS011;46181;51.498;5.392;2023-07-13T06:57:12;15.816;;;6.916001;;
59986;SDS011;46181;51.498;5.392;2023-07-13T07:01:42;18.436;;;6.436001;;
59986;SDS011;46181;51.498;5.392;2023-07-13T07:06:16;15.036;;;6.536;;
59986;SDS011;46181;51.498;5.392;2023-07-13T07:10:42;16.184;;;6.348001;;
59986;SDS011;46181;51.498;5.392;2023-07-13T07:15:12;13.856;;;6.400001;;
59986;SDS011;46181;51.498;5.392;2023-07-13T07:19:42;17.084;;;6.296;;
59986;SDS011;46181;51.498;5.392;2023-07-13T07:24:12;14.78;;;6.004;;
59986;SDS011;46181;51.498;5.392;2023-07-13T07:28:42;11.856;;;5.956;;
59986;SDS011;46181;51.498;5.392;2023-07-13T07:33:12;12.164;;;5.568;;
59986;SDS011;46181;51.498;5.392;2023-07-13T07:37:42;12.36;;;6.143999;;
59986;SDS011;46181;51.498;5.392;2023-07-13T07:42:12;12.124;;;5.208;;
59986;SDS011;46181;51.498;5.392;2023-07-13T07:46:42;13.34;;;5.224;;
59986;SDS011;46181;51.498;5.392;2023-07-13T07:51:12;13.744;;;5.151999;;
59986;SDS011;46181;51.498;5.392;2023-07-13T07:55:42;10.472;;;4.567999;;
59986;SDS011;46181;51.498;5.392;2023-07-13T08:00:13;9.860003;;;4.252001;;
59986;SDS011;46181;51.498;5.392;2023-07-13T08:04:42;10.764;;;4.352;;
59986;SDS011;46181;51.498;5.392;2023-07-13T08:09:12;11.504;;;4.260001;;
59986;SDS011;46181;51.498;5.392;2023-07-13T08:13:42;8.744;;;4.212;;
59986;SDS011;46181;51.498;5.392;2023-07-13T08:18:12;10.048;;;4.032;;
59986;SDS011;46181;51.498;5.392;2023-07-13T08:22:42;8.924;;;3.492;;
59986;SDS011;46181;51.498;5.392;2023-07-13T08:27:12;9.564001;;;3.68;;
59986;SDS011;46181;51.498;5.392;2023-07-13T08:31:42;10.976;;;3.868001;;
59986;SDS011;46181;51.498;5.392;2023-07-13T08:36:12;8.328;;;3.952;;
59986;SDS011;46181;51.498;5.392;2023-07-13T08:40:42;8.244;;;3.392001;;
59986;SDS011;46181;51.498;5.392;2023-07-13T08:45:17;11.416;;;4.132;;
59986;SDS011;46181;51.498;5.392;2023-07-13T08:49:42;7.58;;;3.772001;;
59986;SDS011;46181;51.498;5.392;2023-07-13T08:54:18;8.207999;;;3.236;;
59986;SDS011;46181;51.498;5.392;2023-07-13T08:58:42;8.016001;;;3.368;;
59986;SDS011;46181;51.498;5.392;2023-07-13T09:03:15;9.500001;;;3.563999;;
59986;SDS011;46181;51.498;5.392;2023-07-13T09:07:56;7.008;;;3.452001;;
59986;SDS011;46181;51.498;5.392;2023-07-13T09:12:14;7.508;;;3.164;;
59986;SDS011;46181;51.498;5.392;2023-07-13T09:16:42;6.552;;;3.332001;;
59986;SDS011;46181;51.498;5.392;2023-07-13T09:21:13;7.295999;;;3.095999;;
59986;SDS011;46181;51.498;5.392;2023-07-13T09:25:42;7.992;;;3.36;;
59986;SDS011;46181;51.498;5.392;2023-07-13T09:30:24;7.236001;;;3.516;;
59986;SDS011;46181;51.498;5.392;2023-07-13T09:34:42;7.888001;;;3.615999;;
59986;SDS011;46181;51.498;5.392;2023-07-13T09:39:14;7.996;;;3.336;;
59986;SDS011;46181;51.498;5.392;2023-07-13T09:43:42;8.236;;;3.071999;;
59986;SDS011;46181;51.498;5.392;2023-07-13T09:48:14;8.744;;;3.292;;
59986;SDS011;46181;51.498;5.392;2023-07-13T09:52:43;8.268001;;;3.956001;;
59986;SDS011;46181;51.498;5.392;2023-07-13T09:57:15;7.831999;;;2.96;;
59986;SDS011;46181;51.498;5.392;2023-07-13T10:01:42;8.172002;;;2.468;;
59986;SDS011;46181;51.498;5.392;2023-07-13T10:06:15;7.587999;;;2.531999;;
59986;SDS011;46181;51.498;5.392;2023-07-13T10:10:42;7.268;;;2.436001;;
59986;SDS011;46181;51.498;5.392;2023-07-13T10:15:14;5.779999;;;2.3;;
59986;SDS011;46181;51.498;5.392;2023-07-13T10:19:42;4.444;;;1.984;;
59986;SDS011;46181;51.498;5.392;2023-07-13T10:24:15;5.752001;;;2.052;;
59986;SDS011;46181;51.498;5.392;2023-07-13T10:28:42;6.167999;;;1.856;;
59986;SDS011;46181;51.498;5.392;2023-07-13T10:33:12;5.900001;;;1.908;;
59986;SDS011;46181;51.498;5.392;2023-07-13T10:37:43;6.556;;;1.816;;
59986;SDS011;46181;51.498;5.392;2023-07-13T10:42:13;8.948001;;;2.284;;
59986;SDS011;46181;51.498;5.392;2023-07-13T10:46:42;7.624001;;;2.744;;
59986;SDS011;46181;51.498;5.392;2023-07-13T10:51:13;6.5;;;3.324;;
59986;SDS011;46181;51.498;5.392;2023-07-13T10:55:54;9.731999;;;4.34;;
59986;SDS011;46181;51.498;5.392;2023-07-13T11:00:15;6.892;;;4.224;;
59986;SDS011;46181;51.498;5.392;2023-07-13T11:04:45;6.992001;;;4.332001;;
59986;SDS011;46181;51.498;5.392;2023-07-13T11:09:32;8.4;;;4.336;;
59986;SDS011;46181;51.498;5.392;2023-07-13T11:13:56;7.119999;;;4.115999;;
59986;SDS011;46181;51.498;5.392;2023-07-13T11:18:19;7.099999;;;4.312;;
59986;SDS011;46181;51.498;5.392;2023-07-13T11:22:46;7.471999;;;4.780001;;
59986;SDS011;46181;51.498;5.392;2023-07-13T11:27:20;8.596002;;;5.02;;
59986;SDS011;46181;51.498;5.392;2023-07-13T11:31:42;9.487999;;;4.675999;;
59986;SDS011;46181;51.498;5.392;2023-07-13T11:36:14;7.572;;;4.095999;;
59986;SDS011;46181;51.498;5.392;2023-07-13T11:40:42;6.555998;;;3.268001;;
59986;SDS011;46181;51.498;5.392;2023-07-13T11:45:21;7.292001;;;3.372001;;
59986;SDS011;46181;51.498;5.392;2023-07-13T11:49:43;6.660001;;;3.456;;
59986;SDS011;46181;51.498;5.392;2023-07-13T11:54:16;7.052;;;3.152;;
59986;SDS011;46181;51.498;5.392;2023-07-13T11:58:42;5.944;;;3.008;;
59986;SDS011;46181;51.498;5.392;2023-07-13T12:03:14;5.607999;;;2.972;;
59986;SDS011;46181;51.498;5.392;2023-07-13T12:07:42;7.019999;;;2.988;;
59986;SDS011;46181;51.498;5.392;2023-07-13T12:12:17;8.919999;;;3.135999;;
59986;SDS011;46181;51.498;5.392;2023-07-13T12:16:42;5.776001;;;2.760001;;
59986;SDS011;46181;51.498;5.392;2023-07-13T12:21:14;7.948;;;3.703999;;
59986;SDS011;46181;51.498;5.392;2023-07-13T12:25:42;8.096;;;3.032;;
59986;SDS011;46181;51.498;5.392;2023-07-13T12:34:53;5.411999;;;2.732;;
59986;SDS011;46181;51.498;5.392;2023-07-13T12:39:17;5.308;;;2.76;;
59986;SDS011;46181;51.498;5.392;2023-07-13T12:43:42;5.291999;;;2.516;;
59986;SDS011;46181;51.498;5.392;2023-07-13T12:48:15;5.7;;;2.596;;
59986;SDS011;46181;51.498;5.392;2023-07-13T12:52:43;4.6;;;2.384;;
59986;SDS011;46181;51.498;5.392;2023-07-13T12:57:13;5.696001;;;2.192;;
59986;SDS011;46181;51.498;5.392;2023-07-13T13:01:42;5.868001;;;2.28;;
59986;SDS011;46181;51.498;5.392;2023-07-13T13:06:22;4.212;;;1.848;;
59986;SDS011;46181;51.498;5.392;2023-07-13T13:10:42;4.848;;;1.84;;
59986;SDS011;46181;51.498;5.392;2023-07-13T13:15:13;4.996001;;;2.008;;
59986;SDS011;46181;51.498;5.392;2023-07-13T13:19:42;8.015999;;;3.180001;;
59986;SDS011;46181;51.498;5.392;2023-07-13T13:24:14;5.788001;;;2.94;;
59986;SDS011;46181;51.498;5.392;2023-07-13T13:28:42;7.280001;;;2.8;;
59986;SDS011;46181;51.498;5.392;2023-07-13T13:33:13;5.339999;;;2.452;;
59986;SDS011;46181;51.498;5.392;2023-07-13T13:37:42;4.976;;;2.88;;
59986;SDS011;46181;51.498;5.392;2023-07-13T13:42:12;7.687999;;;2.516;;
59986;SDS011;46181;51.498;5.392;2023-07-13T13:46:42;6.472001;;;2.656;;
59986;SDS011;46181;51.498;5.392;2023-07-13T13:51:16;5.532;;;2.716001;;
59986;SDS011;46181;51.498;5.392;2023-07-13T13:55:42;6.088;;;2.34;;
59986;SDS011;46181;51.498;5.392;2023-07-13T14:00:13;4.371999;;;1.964;;
59986;SDS011;46181;51.498;5.392;2023-07-13T14:04:42;4.299999;;;1.816;;
59986;SDS011;46181;51.498;5.392;2023-07-13T14:09:16;4.524001;;;1.984;;
59986;SDS011;46181;51.498;5.392;2023-07-13T14:13:43;5.176;;;1.972;;
59986;SDS011;46181;51.498;5.392;2023-07-13T14:18:12;5.716;;;1.972;;
59986;SDS011;46181;51.498;5.392;2023-07-13T14:22:43;4.984;;;1.872;;
59986;SDS011;46181;51.498;5.392;2023-07-13T14:27:12;3.1;;;1.54;;
59986;SDS011;46181;51.498;5.392;2023-07-13T14:31:42;5.188001;;;1.672;;
59986;SDS011;46181;51.498;5.392;2023-07-13T14:36:16;5.012001;;;1.932;;
59986;SDS011;46181;51.498;5.392;2023-07-13T14:40:42;4.791999;;;2.276;;
59986;SDS011;46181;51.498;5.392;2023-07-13T14:45:17;4.615999;;;2.012;;
59986;SDS011;46181;51.498;5.392;2023-07-13T14:49:43;4.208;;;2.068;;
59986;SDS011;46181;51.498;5.392;2023-07-13T14:54:13;4.428001;;;1.992;;
59986;SDS011;46181;51.498;5.392;2023-07-13T14:58:42;5.667999;;;1.924;;
59986;SDS011;46181;51.498;5.392;2023-07-13T15:03:15;5.02;;;1.84;;
59986;SDS011;46181;51.498;5.392;2023-07-13T15:07:42;4.363999;;;1.7;;
59986;SDS011;46181;51.498;5.392;2023-07-13T15:12:13;4.156;;;1.832;;
59986;SDS011;46181;51.498;5.392;2023-07-13T15:16:42;3.764;;;1.756;;
59986;SDS011;46181;51.498;5.392;2023-07-13T15:21:14;4.992;;;2.039999;;
59986;SDS011;46181;51.498;5.392;2023-07-13T15:25:43;4.9;;;1.832;;
59986;SDS011;46181;51.498;5.392;2023-07-13T15:30:14;5.832001;;;2.16;;
59986;SDS011;46181;51.498;5.392;2023-07-13T15:34:42;5.291999;;;1.788;;
59986;SDS011;46181;51.498;5.392;2023-07-13T15:39:13;6.08;;;2.232;;
59986;SDS011;46181;51.498;5.392;2023-07-13T15:43:42;5.848;;;2;;
59986;SDS011;46181;51.498;5.392;2023-07-13T15:48:16;4.248;;;2.176;;
59986;SDS011;46181;51.498;5.392;2023-07-13T15:52:42;4.199999;;;1.592;;
59986;SDS011;46181;51.498;5.392;2023-07-13T15:57:12;5.204;;;1.672;;
59986;SDS011;46181;51.498;5.392;2023-07-13T16:01:42;3.784;;;1.924;;
59986;SDS011;46181;51.498;5.392;2023-07-13T16:06:19;4.364;;;1.732;;
59986;SDS011;46181;51.498;5.392;2023-07-13T16:10:42;5.831999;;;2.016;;
59986;SDS011;46181;51.498;5.392;2023-07-13T16:15:15;3.936001;;;1.604;;
59986;SDS011;46181;51.498;5.392;2023-07-13T16:19:42;5.304001;;;1.792;;
59986;SDS011;46181;51.498;5.392;2023-07-13T16:24:17;4.456;;;1.516;;
59986;SDS011;46181;51.498;5.392;2023-07-13T16:28:42;3.392;;;1.472;;
59986;SDS011;46181;51.498;5.392;2023-07-13T16:33:12;4.247999;;;1.564;;
59986;SDS011;46181;51.498;5.392;2023-07-13T16:37:42;5.148;;;1.748;;
59986;SDS011;46181;51.498;5.392;2023-07-13T16:42:12;4.292001;;;1.924;;
59986;SDS011;46181;51.498;5.392;2023-07-13T16:46:42;4.32;;;1.763999;;
59986;SDS011;46181;51.498;5.392;2023-07-13T16:51:13;4.771999;;;1.72;;
59986;SDS011;46181;51.498;5.392;2023-07-13T16:55:42;4.620001;;;1.664;;
59986;SDS011;46181;51.498;5.392;2023-07-13T17:00:16;6.228;;;1.628;;
59986;SDS011;46181;51.498;5.392;2023-07-13T17:04:42;4.748;;;1.791999;;
59986;SDS011;46181;51.498;5.392;2023-07-13T17:09:13;5.168001;;;2;;
59986;SDS011;46181;51.498;5.392;2023-07-13T17:13:42;4.216001;;;2.016;;
59986;SDS011;46181;51.498;5.392;2023-07-13T17:18:13;7.596;;;2.156;;
59986;SDS011;46181;51.498;5.392;2023-07-13T17:22:42;4.6;;;2.076;;
59986;SDS011;46181;51.498;5.392;2023-07-13T17:27:12;5.664;;;2.092;;
59986;SDS011;46181;51.498;5.392;2023-07-13T17:31:43;5.316001;;;2.164;;
59986;SDS011;46181;51.498;5.392;2023-07-13T17:36:13;4.012001;;;1.94;;
59986;SDS011;46181;51.498;5.392;2023-07-13T17:40:43;7.212;;;2.352;;
59986;SDS011;46181;51.498;5.392;2023-07-13T17:45:13;5.359999;;;1.884;;
59986;SDS011;46181;51.498;5.392;2023-07-13T17:49:42;5.848;;;2.056;;
59986;SDS011;46181;51.498;5.392;2023-07-13T17:54:15;5.632;;;2.1;;
59986;SDS011;46181;51.498;5.392;2023-07-13T17:58:43;8.060001;;;2.108;;
59986;SDS011;46181;51.498;5.392;2023-07-13T18:03:14;4.044;;;2.039999;;
59986;SDS011;46181;51.498;5.392;2023-07-13T18:07:42;6.199999;;;2.3;;
59986;SDS011;46181;51.498;5.392;2023-07-13T18:12:13;4.448;;;2.084;;
59986;SDS011;46181;51.498;5.392;2023-07-13T18:16:45;5.096;;;2.016;;
59986;SDS011;46181;51.498;5.392;2023-07-13T18:21:13;4.548;;;2.336;;
59986;SDS011;46181;51.498;5.392;2023-07-13T18:25:42;5.88;;;2.324;;
59986;SDS011;46181;51.498;5.392;2023-07-13T18:30:13;5.147999;;;2.264;;
59986;SDS011;46181;51.498;5.392;2023-07-13T18:34:42;4.347999;;;2.216;;
59986;SDS011;46181;51.498;5.392;2023-07-13T18:39:15;5.356001;;;2.388;;
59986;SDS011;46181;51.498;5.392;2023-07-13T18:43:42;5.095999;;;2.400001;;
59986;SDS011;46181;51.498;5.392;2023-07-13T18:48:16;5.184;;;2.384001;;
59986;SDS011;46181;51.498;5.392;2023-07-13T18:52:42;4.552;;;2.228;;
59986;SDS011;46181;51.498;5.392;2023-07-13T18:57:12;5.824001;;;2.576;;
59986;SDS011;46181;51.498;5.392;2023-07-13T19:01:42;4.944;;;2.503999;;
59986;SDS011;46181;51.498;5.392;2023-07-13T19:06:12;9.992001;;;6.044;;
59986;SDS011;46181;51.498;5.392;2023-07-13T19:10:42;12.18;;;6.824001;;
59986;SDS011;46181;51.498;5.392;2023-07-13T19:15:16;6.324;;;3.472;;
59986;SDS011;46181;51.498;5.392;2023-07-13T19:19:42;4.78;;;2.888001;;
59986;SDS011;46181;51.498;5.392;2023-07-13T19:24:14;6.708;;;2.748;;
59986;SDS011;46181;51.498;5.392;2023-07-13T19:28:42;5.944;;;2.996;;
59986;SDS011;46181;51.498;5.392;2023-07-13T19:33:13;5.24;;;2.776;;
59986;SDS011;46181;51.498;5.392;2023-07-13T19:37:42;5.896;;;3.06;;
59986;SDS011;46181;51.498;5.392;2023-07-13T19:42:15;5.944;;;2.824;;
59986;SDS011;46181;51.498;5.392;2023-07-13T19:46:42;5.792;;;3.308;;
59986;SDS011;46181;51.498;5.392;2023-07-13T19:51:13;6.212001;;;3.124;;
59986;SDS011;46181;51.498;5.392;2023-07-13T19:55:42;8.124001;;;3.424001;;
59986;SDS011;46181;51.498;5.392;2023-07-13T20:00:22;5.692001;;;3.079999;;
59986;SDS011;46181;51.498;5.392;2023-07-13T20:04:42;6.131999;;;3.368;;
59986;SDS011;46181;51.498;5.392;2023-07-13T20:09:15;5.52;;;3.376;;
59986;SDS011;46181;51.498;5.392;2023-07-13T20:13:42;6.860001;;;3.824001;;
59986;SDS011;46181;51.498;5.392;2023-07-13T20:18:15;6.507998;;;3.587999;;
59986;SDS011;46181;51.498;5.392;2023-07-13T20:22:43;12.528;;;7.127999;;
59986;SDS011;46181;51.498;5.392;2023-07-13T20:27:12;8.380001;;;4.348001;;
59986;SDS011;46181;51.498;5.392;2023-07-13T20:31:43;7.06;;;4.079999;;
59986;SDS011;46181;51.498;5.392;2023-07-13T20:36:12;7.584;;;3.812001;;
59986;SDS011;46181;51.498;5.392;2023-07-13T20:40:43;7.484001;;;3.804;;
59986;SDS011;46181;51.498;5.392;2023-07-13T20:45:13;7.967999;;;4.107999;;
59986;SDS011;46181;51.498;5.392;2023-07-13T20:49:43;8.212;;;4.304001;;
59986;SDS011;46181;51.498;5.392;2023-07-13T20:54:14;10.416;;;4.360001;;
59986;SDS011;46181;51.498;5.392;2023-07-13T20:58:43;6.468;;;4.396001;;
59986;SDS011;46181;51.498;5.392;2023-07-13T21:03:17;8.724;;;4.828001;;
59986;SDS011;46181;51.498;5.392;2023-07-13T21:07:43;6.516002;;;4.639999;;
59986;SDS011;46181;51.498;5.392;2023-07-13T21:12:13;7.024;;;4.516;;
59986;SDS011;46181;51.498;5.392;2023-07-13T21:16:43;8.416;;;4.639999;;
59986;SDS011;46181;51.498;5.392;2023-07-13T21:21:13;8.508002;;;4.828001;;
59986;SDS011;46181;51.498;5.392;2023-07-13T21:25:43;8.167999;;;5.052;;
59986;SDS011;46181;51.498;5.392;2023-07-13T21:34:43;8.944001;;;5.151999;;
59986;SDS011;46181;51.498;5.392;2023-07-13T21:39:13;8.728001;;;5.584;;
59986;SDS011;46181;51.498;5.392;2023-07-13T21:43:43;9.2;;;5.892001;;
59986;SDS011;46181;51.498;5.392;2023-07-13T21:48:13;7.935998;;;5.232001;;
59986;SDS011;46181;51.498;5.392;2023-07-13T21:52:43;8.019999;;;5.256;;
59986;SDS011;46181;51.498;5.392;2023-07-13T21:57:16;9.496001;;;5.360001;;
59986;SDS011;46181;51.498;5.392;2023-07-13T22:01:43;9.831999;;;5.212001;;
59986;SDS011;46181;51.498;5.392;2023-07-13T22:06:19;8.896001;;;4.964;;
59986;SDS011;46181;51.498;5.392;2023-07-13T22:10:43;8.527999;;;5.008;;
59986;SDS011;46181;51.498;5.392;2023-07-13T22:15:13;9.94;;;4.852001;;
59986;SDS011;46181;51.498;5.392;2023-07-13T22:19:43;7.487999;;;4.892;;
59986;SDS011;46181;51.498;5.392;2023-07-13T22:24:14;8.936001;;;5.059999;;
59986;SDS011;46181;51.498;5.392;2023-07-13T22:28:45;8.179998;;;4.780002;;
59986;SDS011;46181;51.498;5.392;2023-07-13T22:33:14;8.943999;;;5.456;;
59986;SDS011;46181;51.498;5.392;2023-07-13T22:37:43;8.499999;;;5.348001;;
59986;SDS011;46181;51.498;5.392;2023-07-13T22:42:13;9.171999;;;5.488;;
59986;SDS011;46181;51.498;5.392;2023-07-13T22:46:43;8.568001;;;5.068;;
59986;SDS011;46181;51.498;5.392;2023-07-13T22:51:15;9.576;;;5.444;;
59986;SDS011;46181;51.498;5.392;2023-07-13T22:55:43;8.511999;;;5.484;;
59986;SDS011;46181;51.498;5.392;2023-07-13T23:00:19;10.632;;;5.527999;;
59986;SDS011;46181;51.498;5.392;2023-07-13T23:04:43;8.932001;;;5.592;;
59986;SDS011;46181;51.498;5.392;2023-07-13T23:09:13;8.928;;;5.779999;;
59986;SDS011;46181;51.498;5.392;2023-07-13T23:13:43;9.56;;;4.956;;
59986;SDS011;46181;51.498;5.392;2023-07-13T23:18:13;8.443999;;;5.52;;
59986;SDS011;46181;51.498;5.392;2023-07-13T23:22:43;8.448001;;;5.059999;;
59986;SDS011;46181;51.498;5.392;2023-07-13T23:27:13;8.951999;;;5.344001;;
59986;SDS011;46181;51.498;5.392;2023-07-13T23:31:43;10.252;;;5.292001;;
59986;SDS011;46181;51.498;5.392;2023-07-13T23:36:14;8.784002;;;5.248002;;
59986;SDS011;46181;51.498;5.392;2023-07-13T23:40:43;8.831999;;;5.776;;
59986;SDS011;46181;51.498;5.392;2023-07-13T23:45:16;8.72;;;5.864;;
59986;SDS011;46181;51.498;5.392;2023-07-13T23:49:43;10.556;;;6.004;;
59986;SDS011;46181;51.498;5.392;2023-07-13T23:54:14;8.575998;;;5.472;;
59986;SDS011;46181;51.498;5.392;2023-07-13T23:58:43;10.144;;;5.884001;;
